sensor_id;sensor_type;location;lat;lon;timestamp;P1;durP1;ratioP1;P2;durP2;ratioP2
39738;SDS011;25422;48.286;8.484;2023-08-20T00:00:50;13.90;;;8.30;;
39738;SDS011;25422;48.286;8.484;2023-08-20T00:03:16;12.82;;;9.45;;
39738;SDS011;25422;48.286;8.484;2023-08-20T00:05:42;11.27;;;8.75;;
39738;SDS011;25422;48.286;8.484;2023-08-20T00:08:07;14.23;;;9.80;;
39738;SDS011;25422;48.286;8.484;2023-08-20T00:10:33;12.40;;;9.65;;
39738;SDS011;25422;48.286;8.484;2023-08-20T00:12:59;9.65;;;8.40;;
39738;SDS011;25422;48.286;8.484;2023-08-20T00:15:24;12.65;;;9.35;;
39738;SDS011;25422;48.286;8.484;2023-08-20T00:17:52;14.25;;;9.48;;
39738;SDS011;25422;48.286;8.484;2023-08-20T00:20:19;11.65;;;9.77;;
39738;SDS011;25422;48.286;8.484;2023-08-20T00:22:45;16.73;;;10.25;;
39738;SDS011;25422;48.286;8.484;2023-08-20T00:25:12;15.85;;;10.20;;
39738;SDS011;25422;48.286;8.484;2023-08-20T00:27:39;13.40;;;9.50;;
39738;SDS011;25422;48.286;8.484;2023-08-20T00:30:04;11.50;;;9.70;;
39738;SDS011;25422;48.286;8.484;2023-08-20T00:32:30;12.23;;;9.65;;
39738;SDS011;25422;48.286;8.484;2023-08-20T00:34:56;13.90;;;10.48;;
39738;SDS011;25422;48.286;8.484;2023-08-20T00:37:21;11.90;;;9.00;;
39738;SDS011;25422;48.286;8.484;2023-08-20T00:39:46;14.68;;;10.25;;
39738;SDS011;25422;48.286;8.484;2023-08-20T00:42:13;14.73;;;10.57;;
39738;SDS011;25422;48.286;8.484;2023-08-20T00:44:41;18.30;;;10.10;;
39738;SDS011;25422;48.286;8.484;2023-08-20T00:47:09;11.88;;;9.23;;
39738;SDS011;25422;48.286;8.484;2023-08-20T00:49:35;11.02;;;9.70;;
39738;SDS011;25422;48.286;8.484;2023-08-20T00:52:01;12.77;;;9.48;;
39738;SDS011;25422;48.286;8.484;2023-08-20T00:54:29;12.43;;;9.45;;
39738;SDS011;25422;48.286;8.484;2023-08-20T00:56:57;10.40;;;8.60;;
39738;SDS011;25422;48.286;8.484;2023-08-20T00:59:24;14.40;;;9.48;;
39738;SDS011;25422;48.286;8.484;2023-08-20T01:01:50;15.88;;;9.70;;
39738;SDS011;25422;48.286;8.484;2023-08-20T01:04:16;15.25;;;10.20;;
39738;SDS011;25422;48.286;8.484;2023-08-20T01:06:46;13.35;;;9.70;;
39738;SDS011;25422;48.286;8.484;2023-08-20T01:09:33;13.32;;;9.45;;
39738;SDS011;25422;48.286;8.484;2023-08-20T01:12:05;12.95;;;10.27;;
39738;SDS011;25422;48.286;8.484;2023-08-20T01:14:31;11.18;;;9.90;;
39738;SDS011;25422;48.286;8.484;2023-08-20T01:16:57;11.27;;;9.48;;
39738;SDS011;25422;48.286;8.484;2023-08-20T01:19:22;13.00;;;9.98;;
39738;SDS011;25422;48.286;8.484;2023-08-20T01:21:56;13.85;;;9.73;;
39738;SDS011;25422;48.286;8.484;2023-08-20T01:24:38;16.20;;;10.25;;
39738;SDS011;25422;48.286;8.484;2023-08-20T01:30:12;16.10;;;11.07;;
39738;SDS011;25422;48.286;8.484;2023-08-20T01:32:38;14.30;;;10.10;;
39738;SDS011;25422;48.286;8.484;2023-08-20T01:35:08;13.90;;;10.32;;
39738;SDS011;25422;48.286;8.484;2023-08-20T01:37:38;11.95;;;9.75;;
39738;SDS011;25422;48.286;8.484;2023-08-20T01:40:04;10.88;;;9.65;;
39738;SDS011;25422;48.286;8.484;2023-08-20T01:42:32;15.73;;;10.07;;
39738;SDS011;25422;48.286;8.484;2023-08-20T01:44:57;16.30;;;10.13;;
39738;SDS011;25422;48.286;8.484;2023-08-20T01:47:22;12.60;;;9.88;;
39738;SDS011;25422;48.286;8.484;2023-08-20T01:49:48;15.35;;;9.55;;
39738;SDS011;25422;48.286;8.484;2023-08-20T01:52:13;10.63;;;9.52;;
39738;SDS011;25422;48.286;8.484;2023-08-20T01:54:38;12.50;;;8.82;;
39738;SDS011;25422;48.286;8.484;2023-08-20T01:57:04;10.02;;;8.90;;
39738;SDS011;25422;48.286;8.484;2023-08-20T01:59:29;12.63;;;9.43;;
39738;SDS011;25422;48.286;8.484;2023-08-20T02:01:54;13.65;;;9.13;;
39738;SDS011;25422;48.286;8.484;2023-08-20T02:04:20;10.40;;;9.13;;
39738;SDS011;25422;48.286;8.484;2023-08-20T02:06:45;9.57;;;8.57;;
39738;SDS011;25422;48.286;8.484;2023-08-20T02:09:12;11.07;;;9.40;;
39738;SDS011;25422;48.286;8.484;2023-08-20T02:11:38;13.55;;;8.88;;
39738;SDS011;25422;48.286;8.484;2023-08-20T02:14:03;12.82;;;10.10;;
39738;SDS011;25422;48.286;8.484;2023-08-20T02:16:29;25.67;;;11.25;;
39738;SDS011;25422;48.286;8.484;2023-08-20T02:18:54;13.10;;;10.25;;
39738;SDS011;25422;48.286;8.484;2023-08-20T02:21:19;14.75;;;10.43;;
39738;SDS011;25422;48.286;8.484;2023-08-20T02:23:45;14.18;;;10.50;;
39738;SDS011;25422;48.286;8.484;2023-08-20T02:26:10;14.55;;;10.05;;
39738;SDS011;25422;48.286;8.484;2023-08-20T02:28:36;12.30;;;10.43;;
39738;SDS011;25422;48.286;8.484;2023-08-20T02:31:03;12.43;;;11.10;;
39738;SDS011;25422;48.286;8.484;2023-08-20T02:33:29;13.93;;;10.18;;
39738;SDS011;25422;48.286;8.484;2023-08-20T02:35:55;12.35;;;9.43;;
39738;SDS011;25422;48.286;8.484;2023-08-20T02:38:21;9.32;;;8.38;;
39738;SDS011;25422;48.286;8.484;2023-08-20T02:40:46;12.43;;;9.48;;
39738;SDS011;25422;48.286;8.484;2023-08-20T02:43:12;11.32;;;9.10;;
39738;SDS011;25422;48.286;8.484;2023-08-20T02:45:41;13.05;;;8.18;;
39738;SDS011;25422;48.286;8.484;2023-08-20T02:48:07;12.50;;;8.80;;
39738;SDS011;25422;48.286;8.484;2023-08-20T02:50:32;14.15;;;9.45;;
39738;SDS011;25422;48.286;8.484;2023-08-20T02:52:58;12.55;;;10.10;;
39738;SDS011;25422;48.286;8.484;2023-08-20T02:55:23;15.18;;;11.02;;
39738;SDS011;25422;48.286;8.484;2023-08-20T02:57:48;13.55;;;11.15;;
39738;SDS011;25422;48.286;8.484;2023-08-20T03:00:14;11.40;;;10.20;;
39738;SDS011;25422;48.286;8.484;2023-08-20T03:02:40;14.20;;;11.10;;
39738;SDS011;25422;48.286;8.484;2023-08-20T03:05:07;16.65;;;11.45;;
39738;SDS011;25422;48.286;8.484;2023-08-20T03:07:35;11.30;;;10.10;;
39738;SDS011;25422;48.286;8.484;2023-08-20T03:10:00;16.38;;;10.63;;
39738;SDS011;25422;48.286;8.484;2023-08-20T03:12:26;16.35;;;11.18;;
39738;SDS011;25422;48.286;8.484;2023-08-20T03:14:51;12.98;;;10.73;;
39738;SDS011;25422;48.286;8.484;2023-08-20T03:17:17;12.95;;;10.88;;
39738;SDS011;25422;48.286;8.484;2023-08-20T03:19:53;11.48;;;9.95;;
39738;SDS011;25422;48.286;8.484;2023-08-20T03:22:22;18.70;;;9.90;;
39738;SDS011;25422;48.286;8.484;2023-08-20T03:24:48;13.05;;;10.02;;
39738;SDS011;25422;48.286;8.484;2023-08-20T03:27:13;15.05;;;11.30;;
39738;SDS011;25422;48.286;8.484;2023-08-20T03:29:39;13.23;;;11.48;;
39738;SDS011;25422;48.286;8.484;2023-08-20T03:32:04;15.65;;;12.05;;
39738;SDS011;25422;48.286;8.484;2023-08-20T03:34:30;14.43;;;10.82;;
39738;SDS011;25422;48.286;8.484;2023-08-20T03:36:56;13.18;;;9.68;;
39738;SDS011;25422;48.286;8.484;2023-08-20T03:39:21;11.45;;;10.27;;
39738;SDS011;25422;48.286;8.484;2023-08-20T03:41:47;14.80;;;11.75;;
39738;SDS011;25422;48.286;8.484;2023-08-20T03:44:13;13.40;;;12.10;;
39738;SDS011;25422;48.286;8.484;2023-08-20T03:46:39;13.18;;;11.52;;
39738;SDS011;25422;48.286;8.484;2023-08-20T03:49:04;13.93;;;12.13;;
39738;SDS011;25422;48.286;8.484;2023-08-20T03:51:30;15.60;;;11.30;;
39738;SDS011;25422;48.286;8.484;2023-08-20T03:53:56;16.98;;;11.70;;
39738;SDS011;25422;48.286;8.484;2023-08-20T03:56:21;18.48;;;12.38;;
39738;SDS011;25422;48.286;8.484;2023-08-20T03:58:46;22.10;;;13.43;;
39738;SDS011;25422;48.286;8.484;2023-08-20T04:01:12;16.83;;;14.50;;
39738;SDS011;25422;48.286;8.484;2023-08-20T04:03:37;19.40;;;14.75;;
39738;SDS011;25422;48.286;8.484;2023-08-20T04:06:02;17.75;;;13.95;;
39738;SDS011;25422;48.286;8.484;2023-08-20T04:08:28;18.58;;;14.35;;
39738;SDS011;25422;48.286;8.484;2023-08-20T04:10:54;18.05;;;13.32;;
39738;SDS011;25422;48.286;8.484;2023-08-20T04:13:20;14.88;;;13.32;;
39738;SDS011;25422;48.286;8.484;2023-08-20T04:15:45;16.77;;;13.57;;
39738;SDS011;25422;48.286;8.484;2023-08-20T04:18:11;18.20;;;13.18;;
39738;SDS011;25422;48.286;8.484;2023-08-20T04:20:36;18.58;;;14.50;;
39738;SDS011;25422;48.286;8.484;2023-08-20T04:23:02;18.08;;;14.60;;
39738;SDS011;25422;48.286;8.484;2023-08-20T04:25:27;18.02;;;14.30;;
39738;SDS011;25422;48.286;8.484;2023-08-20T04:27:53;19.38;;;14.75;;
39738;SDS011;25422;48.286;8.484;2023-08-20T04:30:19;17.13;;;13.80;;
39738;SDS011;25422;48.286;8.484;2023-08-20T04:32:45;16.33;;;13.85;;
39738;SDS011;25422;48.286;8.484;2023-08-20T04:35:10;15.10;;;13.35;;
39738;SDS011;25422;48.286;8.484;2023-08-20T04:37:35;17.42;;;13.90;;
39738;SDS011;25422;48.286;8.484;2023-08-20T04:40:01;14.65;;;12.95;;
39738;SDS011;25422;48.286;8.484;2023-08-20T04:42:29;16.88;;;13.65;;
39738;SDS011;25422;48.286;8.484;2023-08-20T04:44:56;15.35;;;13.00;;
39738;SDS011;25422;48.286;8.484;2023-08-20T04:47:21;19.48;;;12.57;;
39738;SDS011;25422;48.286;8.484;2023-08-20T04:49:47;16.90;;;12.57;;
39738;SDS011;25422;48.286;8.484;2023-08-20T04:52:13;14.25;;;12.20;;
39738;SDS011;25422;48.286;8.484;2023-08-20T04:54:38;13.15;;;11.60;;
39738;SDS011;25422;48.286;8.484;2023-08-20T04:57:04;12.38;;;11.07;;
39738;SDS011;25422;48.286;8.484;2023-08-20T04:59:29;13.45;;;11.00;;
39738;SDS011;25422;48.286;8.484;2023-08-20T05:02:00;14.10;;;11.68;;
39738;SDS011;25422;48.286;8.484;2023-08-20T05:04:37;14.32;;;11.27;;
39738;SDS011;25422;48.286;8.484;2023-08-20T05:07:03;12.90;;;10.30;;
39738;SDS011;25422;48.286;8.484;2023-08-20T05:09:29;13.10;;;10.20;;
39738;SDS011;25422;48.286;8.484;2023-08-20T05:11:55;11.13;;;9.75;;
39738;SDS011;25422;48.286;8.484;2023-08-20T05:14:20;12.55;;;8.90;;
39738;SDS011;25422;48.286;8.484;2023-08-20T05:16:46;12.77;;;8.52;;
39738;SDS011;25422;48.286;8.484;2023-08-20T05:19:11;8.02;;;7.20;;
39738;SDS011;25422;48.286;8.484;2023-08-20T05:21:37;11.70;;;7.80;;
39738;SDS011;25422;48.286;8.484;2023-08-20T05:24:02;13.65;;;8.68;;
39738;SDS011;25422;48.286;8.484;2023-08-20T05:26:28;11.93;;;7.88;;
39738;SDS011;25422;48.286;8.484;2023-08-20T05:28:54;11.90;;;8.45;;
39738;SDS011;25422;48.286;8.484;2023-08-20T05:31:20;8.52;;;7.60;;
39738;SDS011;25422;48.286;8.484;2023-08-20T05:33:46;11.77;;;7.70;;
39738;SDS011;25422;48.286;8.484;2023-08-20T05:36:12;8.48;;;7.20;;
39738;SDS011;25422;48.286;8.484;2023-08-20T05:38:37;8.65;;;7.53;;
39738;SDS011;25422;48.286;8.484;2023-08-20T05:41:03;9.15;;;7.25;;
39738;SDS011;25422;48.286;8.484;2023-08-20T05:43:28;10.82;;;7.82;;
39738;SDS011;25422;48.286;8.484;2023-08-20T05:45:54;9.32;;;7.35;;
39738;SDS011;25422;48.286;8.484;2023-08-20T05:48:21;8.13;;;6.40;;
39738;SDS011;25422;48.286;8.484;2023-08-20T05:50:47;10.73;;;6.65;;
39738;SDS011;25422;48.286;8.484;2023-08-20T05:53:14;7.90;;;6.90;;
39738;SDS011;25422;48.286;8.484;2023-08-20T05:55:39;8.65;;;7.72;;
39738;SDS011;25422;48.286;8.484;2023-08-20T05:58:05;10.63;;;7.63;;
39738;SDS011;25422;48.286;8.484;2023-08-20T06:00:32;9.68;;;7.65;;
39738;SDS011;25422;48.286;8.484;2023-08-20T06:02:57;10.82;;;8.45;;
39738;SDS011;25422;48.286;8.484;2023-08-20T06:05:22;14.77;;;9.45;;
39738;SDS011;25422;48.286;8.484;2023-08-20T06:07:48;12.80;;;9.60;;
39738;SDS011;25422;48.286;8.484;2023-08-20T06:10:13;13.25;;;10.32;;
39738;SDS011;25422;48.286;8.484;2023-08-20T06:12:39;9.73;;;8.57;;
39738;SDS011;25422;48.286;8.484;2023-08-20T06:15:04;12.18;;;8.75;;
39738;SDS011;25422;48.286;8.484;2023-08-20T06:17:30;10.38;;;8.63;;
39738;SDS011;25422;48.286;8.484;2023-08-20T06:19:56;11.25;;;8.65;;
39738;SDS011;25422;48.286;8.484;2023-08-20T06:22:21;12.65;;;9.32;;
39738;SDS011;25422;48.286;8.484;2023-08-20T06:24:47;13.68;;;9.45;;
39738;SDS011;25422;48.286;8.484;2023-08-20T06:27:12;9.63;;;8.63;;
39738;SDS011;25422;48.286;8.484;2023-08-20T06:29:37;9.82;;;8.82;;
39738;SDS011;25422;48.286;8.484;2023-08-20T06:32:04;11.30;;;8.77;;
39738;SDS011;25422;48.286;8.484;2023-08-20T06:34:30;12.10;;;9.50;;
39738;SDS011;25422;48.286;8.484;2023-08-20T06:36:55;12.10;;;9.40;;
39738;SDS011;25422;48.286;8.484;2023-08-20T06:39:20;10.90;;;9.60;;
39738;SDS011;25422;48.286;8.484;2023-08-20T06:41:46;12.52;;;9.40;;
39738;SDS011;25422;48.286;8.484;2023-08-20T06:44:19;12.80;;;9.43;;
39738;SDS011;25422;48.286;8.484;2023-08-20T06:46:44;9.43;;;8.43;;
39738;SDS011;25422;48.286;8.484;2023-08-20T06:49:09;12.73;;;8.18;;
39738;SDS011;25422;48.286;8.484;2023-08-20T06:51:35;10.50;;;8.07;;
39738;SDS011;25422;48.286;8.484;2023-08-20T06:54:00;8.70;;;7.80;;
39738;SDS011;25422;48.286;8.484;2023-08-20T06:56:26;10.93;;;8.30;;
39738;SDS011;25422;48.286;8.484;2023-08-20T06:58:51;11.23;;;7.85;;
39738;SDS011;25422;48.286;8.484;2023-08-20T07:01:17;9.20;;;7.72;;
39738;SDS011;25422;48.286;8.484;2023-08-20T07:03:43;9.40;;;6.97;;
39738;SDS011;25422;48.286;8.484;2023-08-20T07:06:09;13.10;;;7.32;;
39738;SDS011;25422;48.286;8.484;2023-08-20T07:08:36;8.15;;;6.82;;
39738;SDS011;25422;48.286;8.484;2023-08-20T07:11:02;11.25;;;7.28;;
39738;SDS011;25422;48.286;8.484;2023-08-20T07:13:27;11.77;;;7.68;;
39738;SDS011;25422;48.286;8.484;2023-08-20T07:15:53;12.88;;;6.57;;
39738;SDS011;25422;48.286;8.484;2023-08-20T07:18:19;7.32;;;6.03;;
39738;SDS011;25422;48.286;8.484;2023-08-20T07:20:44;11.95;;;7.30;;
39738;SDS011;25422;48.286;8.484;2023-08-20T07:23:10;7.57;;;6.75;;
39738;SDS011;25422;48.286;8.484;2023-08-20T07:25:36;13.13;;;7.45;;
39738;SDS011;25422;48.286;8.484;2023-08-20T07:28:03;9.50;;;6.68;;
39738;SDS011;25422;48.286;8.484;2023-08-20T07:30:29;11.02;;;6.63;;
39738;SDS011;25422;48.286;8.484;2023-08-20T07:32:55;11.88;;;7.53;;
39738;SDS011;25422;48.286;8.484;2023-08-20T07:35:20;13.95;;;8.05;;
39738;SDS011;25422;48.286;8.484;2023-08-20T07:37:46;11.18;;;6.80;;
39738;SDS011;25422;48.286;8.484;2023-08-20T07:40:12;11.57;;;7.25;;
39738;SDS011;25422;48.286;8.484;2023-08-20T07:42:38;11.57;;;7.13;;
39738;SDS011;25422;48.286;8.484;2023-08-20T07:45:05;10.52;;;7.35;;
39738;SDS011;25422;48.286;8.484;2023-08-20T07:47:30;9.13;;;6.70;;
39738;SDS011;25422;48.286;8.484;2023-08-20T07:49:56;9.95;;;7.00;;
39738;SDS011;25422;48.286;8.484;2023-08-20T07:52:21;9.52;;;6.38;;
39738;SDS011;25422;48.286;8.484;2023-08-20T07:54:46;9.85;;;7.45;;
39738;SDS011;25422;48.286;8.484;2023-08-20T07:57:12;9.15;;;7.38;;
39738;SDS011;25422;48.286;8.484;2023-08-20T07:59:38;14.23;;;7.65;;
39738;SDS011;25422;48.286;8.484;2023-08-20T08:02:03;12.85;;;7.90;;
39738;SDS011;25422;48.286;8.484;2023-08-20T08:04:29;11.55;;;7.07;;
39738;SDS011;25422;48.286;8.484;2023-08-20T08:06:54;9.27;;;7.30;;
39738;SDS011;25422;48.286;8.484;2023-08-20T08:11:46;7.82;;;6.32;;
39738;SDS011;25422;48.286;8.484;2023-08-20T08:14:12;8.02;;;5.20;;
39738;SDS011;25422;48.286;8.484;2023-08-20T08:16:37;10.82;;;7.35;;
39738;SDS011;25422;48.286;8.484;2023-08-20T08:19:03;10.70;;;6.65;;
39738;SDS011;25422;48.286;8.484;2023-08-20T08:21:28;10.98;;;7.13;;
39738;SDS011;25422;48.286;8.484;2023-08-20T08:23:53;8.68;;;5.97;;
39738;SDS011;25422;48.286;8.484;2023-08-20T08:26:19;14.55;;;6.40;;
39738;SDS011;25422;48.286;8.484;2023-08-20T08:28:44;7.93;;;5.57;;
39738;SDS011;25422;48.286;8.484;2023-08-20T08:31:09;10.00;;;6.00;;
39738;SDS011;25422;48.286;8.484;2023-08-20T08:33:35;10.52;;;5.40;;
39738;SDS011;25422;48.286;8.484;2023-08-20T08:36:00;10.80;;;5.28;;
39738;SDS011;25422;48.286;8.484;2023-08-20T08:38:26;7.90;;;4.80;;
39738;SDS011;25422;48.286;8.484;2023-08-20T08:40:51;11.18;;;5.55;;
39738;SDS011;25422;48.286;8.484;2023-08-20T08:43:17;7.88;;;4.85;;
39738;SDS011;25422;48.286;8.484;2023-08-20T08:45:46;9.32;;;4.57;;
39738;SDS011;25422;48.286;8.484;2023-08-20T08:48:15;8.93;;;4.47;;
39738;SDS011;25422;48.286;8.484;2023-08-20T08:50:40;9.13;;;5.22;;
39738;SDS011;25422;48.286;8.484;2023-08-20T08:53:06;10.73;;;5.57;;
39738;SDS011;25422;48.286;8.484;2023-08-20T08:55:32;7.80;;;5.15;;
39738;SDS011;25422;48.286;8.484;2023-08-20T08:57:58;5.70;;;4.20;;
39738;SDS011;25422;48.286;8.484;2023-08-20T09:00:23;7.85;;;4.75;;
39738;SDS011;25422;48.286;8.484;2023-08-20T09:02:48;10.57;;;4.70;;
39738;SDS011;25422;48.286;8.484;2023-08-20T09:05:14;10.95;;;4.70;;
39738;SDS011;25422;48.286;8.484;2023-08-20T09:07:43;7.55;;;4.13;;
39738;SDS011;25422;48.286;8.484;2023-08-20T09:10:10;12.68;;;5.10;;
39738;SDS011;25422;48.286;8.484;2023-08-20T09:12:35;9.65;;;4.50;;
39738;SDS011;25422;48.286;8.484;2023-08-20T09:15:01;8.95;;;4.70;;
39738;SDS011;25422;48.286;8.484;2023-08-20T09:17:27;8.15;;;4.82;;
39738;SDS011;25422;48.286;8.484;2023-08-20T09:19:54;11.30;;;4.40;;
39738;SDS011;25422;48.286;8.484;2023-08-20T09:22:23;10.32;;;4.30;;
39738;SDS011;25422;48.286;8.484;2023-08-20T09:24:53;5.30;;;3.90;;
39738;SDS011;25422;48.286;8.484;2023-08-20T09:27:20;7.03;;;4.20;;
39738;SDS011;25422;48.286;8.484;2023-08-20T09:29:47;11.13;;;4.88;;
39738;SDS011;25422;48.286;8.484;2023-08-20T09:32:18;7.00;;;3.83;;
39738;SDS011;25422;48.286;8.484;2023-08-20T09:34:45;7.18;;;4.13;;
39738;SDS011;25422;48.286;8.484;2023-08-20T09:37:14;6.93;;;3.67;;
39738;SDS011;25422;48.286;8.484;2023-08-20T09:39:42;5.88;;;4.03;;
39738;SDS011;25422;48.286;8.484;2023-08-20T09:42:08;6.90;;;4.38;;
39738;SDS011;25422;48.286;8.484;2023-08-20T09:44:36;7.10;;;4.45;;
39738;SDS011;25422;48.286;8.484;2023-08-20T09:47:05;8.80;;;4.22;;
39738;SDS011;25422;48.286;8.484;2023-08-20T09:49:35;5.82;;;3.60;;
39738;SDS011;25422;48.286;8.484;2023-08-20T09:52:06;11.63;;;3.83;;
39738;SDS011;25422;48.286;8.484;2023-08-20T09:57:31;9.27;;;3.77;;
39738;SDS011;25422;48.286;8.484;2023-08-20T10:00:01;6.25;;;4.03;;
39738;SDS011;25422;48.286;8.484;2023-08-20T10:02:38;7.40;;;3.60;;
39738;SDS011;25422;48.286;8.484;2023-08-20T10:05:08;7.22;;;4.13;;
39738;SDS011;25422;48.286;8.484;2023-08-20T10:07:34;7.53;;;4.30;;
39738;SDS011;25422;48.286;8.484;2023-08-20T10:10:01;6.25;;;4.05;;
39738;SDS011;25422;48.286;8.484;2023-08-20T10:12:29;6.32;;;4.10;;
39738;SDS011;25422;48.286;8.484;2023-08-20T10:14:56;8.27;;;4.07;;
39738;SDS011;25422;48.286;8.484;2023-08-20T10:17:22;6.43;;;4.15;;
39738;SDS011;25422;48.286;8.484;2023-08-20T10:19:48;6.30;;;4.03;;
39738;SDS011;25422;48.286;8.484;2023-08-20T10:22:16;6.93;;;3.80;;
39738;SDS011;25422;48.286;8.484;2023-08-20T10:24:52;5.28;;;3.97;;
39738;SDS011;25422;48.286;8.484;2023-08-20T10:27:28;11.27;;;4.00;;
39738;SDS011;25422;48.286;8.484;2023-08-20T10:29:56;7.90;;;3.72;;
39738;SDS011;25422;48.286;8.484;2023-08-20T10:35:24;6.88;;;4.05;;
39738;SDS011;25422;48.286;8.484;2023-08-20T10:43:31;10.93;;;4.35;;
39738;SDS011;25422;48.286;8.484;2023-08-20T10:46:05;9.63;;;4.70;;
39738;SDS011;25422;48.286;8.484;2023-08-20T10:48:32;7.53;;;4.13;;
39738;SDS011;25422;48.286;8.484;2023-08-20T10:51:05;6.95;;;4.07;;
39738;SDS011;25422;48.286;8.484;2023-08-20T10:53:34;11.95;;;4.50;;
39738;SDS011;25422;48.286;8.484;2023-08-20T10:56:10;6.63;;;3.70;;
39738;SDS011;25422;48.286;8.484;2023-08-20T10:58:46;6.85;;;4.18;;
39738;SDS011;25422;48.286;8.484;2023-08-20T11:01:19;5.00;;;3.85;;
39738;SDS011;25422;48.286;8.484;2023-08-20T11:03:46;8.52;;;4.30;;
39738;SDS011;25422;48.286;8.484;2023-08-20T11:06:13;7.27;;;4.13;;
39738;SDS011;25422;48.286;8.484;2023-08-20T11:08:39;9.85;;;4.40;;
39738;SDS011;25422;48.286;8.484;2023-08-20T11:11:07;8.07;;;4.57;;
39738;SDS011;25422;48.286;8.484;2023-08-20T11:13:33;9.13;;;4.63;;
39738;SDS011;25422;48.286;8.484;2023-08-20T11:16:00;5.88;;;4.35;;
39738;SDS011;25422;48.286;8.484;2023-08-20T11:18:27;5.75;;;4.00;;
39738;SDS011;25422;48.286;8.484;2023-08-20T11:20:53;7.95;;;4.32;;
39738;SDS011;25422;48.286;8.484;2023-08-20T11:23:19;8.30;;;4.25;;
39738;SDS011;25422;48.286;8.484;2023-08-20T11:25:44;9.85;;;4.30;;
39738;SDS011;25422;48.286;8.484;2023-08-20T11:28:10;7.13;;;3.92;;
39738;SDS011;25422;48.286;8.484;2023-08-20T11:30:38;7.95;;;4.20;;
39738;SDS011;25422;48.286;8.484;2023-08-20T11:33:03;5.07;;;4.10;;
39738;SDS011;25422;48.286;8.484;2023-08-20T11:35:30;7.15;;;4.05;;
39738;SDS011;25422;48.286;8.484;2023-08-20T11:37:56;8.60;;;4.18;;
39738;SDS011;25422;48.286;8.484;2023-08-20T11:40:22;6.63;;;3.92;;
39738;SDS011;25422;48.286;8.484;2023-08-20T11:42:48;10.85;;;3.88;;
39738;SDS011;25422;48.286;8.484;2023-08-20T11:45:14;8.05;;;3.70;;
39738;SDS011;25422;48.286;8.484;2023-08-20T11:47:40;7.53;;;3.95;;
39738;SDS011;25422;48.286;8.484;2023-08-20T11:50:06;8.90;;;3.58;;
39738;SDS011;25422;48.286;8.484;2023-08-20T11:52:33;11.35;;;4.28;;
39738;SDS011;25422;48.286;8.484;2023-08-20T11:54:59;10.15;;;4.13;;
39738;SDS011;25422;48.286;8.484;2023-08-20T11:57:25;6.80;;;3.88;;
39738;SDS011;25422;48.286;8.484;2023-08-20T11:59:51;8.10;;;3.80;;
39738;SDS011;25422;48.286;8.484;2023-08-20T12:02:24;8.05;;;3.83;;
39738;SDS011;25422;48.286;8.484;2023-08-20T12:04:51;8.93;;;3.60;;
39738;SDS011;25422;48.286;8.484;2023-08-20T12:07:16;6.57;;;3.65;;
39738;SDS011;25422;48.286;8.484;2023-08-20T12:09:42;7.10;;;3.70;;
39738;SDS011;25422;48.286;8.484;2023-08-20T12:12:07;8.45;;;3.72;;
39738;SDS011;25422;48.286;8.484;2023-08-20T12:14:34;8.85;;;3.80;;
39738;SDS011;25422;48.286;8.484;2023-08-20T12:17:00;11.07;;;3.80;;
39738;SDS011;25422;48.286;8.484;2023-08-20T12:19:25;10.48;;;3.80;;
39738;SDS011;25422;48.286;8.484;2023-08-20T12:21:51;4.97;;;3.75;;
39738;SDS011;25422;48.286;8.484;2023-08-20T12:24:17;9.00;;;3.78;;
39738;SDS011;25422;48.286;8.484;2023-08-20T12:26:44;9.95;;;4.15;;
39738;SDS011;25422;48.286;8.484;2023-08-20T12:29:10;11.68;;;4.10;;
39738;SDS011;25422;48.286;8.484;2023-08-20T12:31:35;6.50;;;3.58;;
39738;SDS011;25422;48.286;8.484;2023-08-20T12:34:01;7.50;;;3.30;;
39738;SDS011;25422;48.286;8.484;2023-08-20T12:36:27;9.90;;;3.90;;
39738;SDS011;25422;48.286;8.484;2023-08-20T12:38:54;5.97;;;3.00;;
39738;SDS011;25422;48.286;8.484;2023-08-20T12:41:19;9.70;;;3.22;;
39738;SDS011;25422;48.286;8.484;2023-08-20T12:43:45;8.30;;;4.25;;
39738;SDS011;25422;48.286;8.484;2023-08-20T12:46:10;10.25;;;4.72;;
39738;SDS011;25422;48.286;8.484;2023-08-20T12:48:37;8.27;;;3.88;;
39738;SDS011;25422;48.286;8.484;2023-08-20T12:51:02;8.50;;;3.20;;
39738;SDS011;25422;48.286;8.484;2023-08-20T12:53:28;7.70;;;4.00;;
39738;SDS011;25422;48.286;8.484;2023-08-20T12:55:53;8.20;;;3.10;;
39738;SDS011;25422;48.286;8.484;2023-08-20T12:58:19;10.00;;;3.55;;
39738;SDS011;25422;48.286;8.484;2023-08-20T13:00:45;5.82;;;3.30;;
39738;SDS011;25422;48.286;8.484;2023-08-20T13:03:11;11.07;;;3.78;;
39738;SDS011;25422;48.286;8.484;2023-08-20T13:05:37;7.00;;;3.30;;
39738;SDS011;25422;48.286;8.484;2023-08-20T13:08:03;8.90;;;3.28;;
39738;SDS011;25422;48.286;8.484;2023-08-20T13:10:29;7.60;;;3.50;;
39738;SDS011;25422;48.286;8.484;2023-08-20T13:12:54;15.48;;;3.85;;
39738;SDS011;25422;48.286;8.484;2023-08-20T13:15:25;7.43;;;3.50;;
39738;SDS011;25422;48.286;8.484;2023-08-20T13:17:51;11.63;;;3.55;;
39738;SDS011;25422;48.286;8.484;2023-08-20T13:20:19;4.75;;;3.20;;
39738;SDS011;25422;48.286;8.484;2023-08-20T13:22:50;9.25;;;3.58;;
39738;SDS011;25422;48.286;8.484;2023-08-20T13:25:16;7.68;;;3.50;;
39738;SDS011;25422;48.286;8.484;2023-08-20T13:27:42;7.80;;;3.53;;
39738;SDS011;25422;48.286;8.484;2023-08-20T13:30:08;8.77;;;3.60;;
39738;SDS011;25422;48.286;8.484;2023-08-20T13:32:34;6.38;;;3.20;;
39738;SDS011;25422;48.286;8.484;2023-08-20T13:35:00;9.30;;;3.70;;
39738;SDS011;25422;48.286;8.484;2023-08-20T13:37:27;9.15;;;3.65;;
39738;SDS011;25422;48.286;8.484;2023-08-20T13:39:54;7.95;;;3.75;;
39738;SDS011;25422;48.286;8.484;2023-08-20T13:42:19;7.20;;;4.03;;
39738;SDS011;25422;48.286;8.484;2023-08-20T13:44:45;11.63;;;4.07;;
39738;SDS011;25422;48.286;8.484;2023-08-20T13:47:10;7.93;;;4.30;;
39738;SDS011;25422;48.286;8.484;2023-08-20T13:49:35;10.38;;;4.40;;
39738;SDS011;25422;48.286;8.484;2023-08-20T13:52:01;8.55;;;4.20;;
39738;SDS011;25422;48.286;8.484;2023-08-20T13:54:26;7.22;;;4.88;;
39738;SDS011;25422;48.286;8.484;2023-08-20T13:56:51;7.70;;;4.45;;
39738;SDS011;25422;48.286;8.484;2023-08-20T13:59:17;12.55;;;4.50;;
39738;SDS011;25422;48.286;8.484;2023-08-20T14:01:42;10.68;;;5.00;;
39738;SDS011;25422;48.286;8.484;2023-08-20T14:04:07;14.65;;;6.97;;
39738;SDS011;25422;48.286;8.484;2023-08-20T14:06:33;8.23;;;4.97;;
39738;SDS011;25422;48.286;8.484;2023-08-20T14:08:58;11.25;;;4.30;;
39738;SDS011;25422;48.286;8.484;2023-08-20T14:11:24;8.50;;;4.65;;
39738;SDS011;25422;48.286;8.484;2023-08-20T14:13:49;10.30;;;4.63;;
39738;SDS011;25422;48.286;8.484;2023-08-20T14:16:14;10.13;;;4.65;;
39738;SDS011;25422;48.286;8.484;2023-08-20T14:18:40;9.02;;;4.45;;
39738;SDS011;25422;48.286;8.484;2023-08-20T14:21:05;10.90;;;4.57;;
39738;SDS011;25422;48.286;8.484;2023-08-20T14:23:31;9.20;;;4.60;;
39738;SDS011;25422;48.286;8.484;2023-08-20T14:25:56;13.57;;;4.55;;
39738;SDS011;25422;48.286;8.484;2023-08-20T14:28:22;6.53;;;4.72;;
39738;SDS011;25422;48.286;8.484;2023-08-20T14:30:48;9.30;;;4.38;;
39738;SDS011;25422;48.286;8.484;2023-08-20T14:33:15;13.60;;;4.60;;
39738;SDS011;25422;48.286;8.484;2023-08-20T14:35:40;11.45;;;4.95;;
39738;SDS011;25422;48.286;8.484;2023-08-20T14:38:06;9.07;;;4.95;;
39738;SDS011;25422;48.286;8.484;2023-08-20T14:40:36;8.00;;;4.88;;
39738;SDS011;25422;48.286;8.484;2023-08-20T14:43:02;9.48;;;4.82;;
39738;SDS011;25422;48.286;8.484;2023-08-20T14:45:28;13.82;;;4.78;;
39738;SDS011;25422;48.286;8.484;2023-08-20T14:47:54;6.68;;;4.40;;